Terminal Aerodrome Forecast
Issued by NWS Atlanta, GA

Home | Current Version | Previous Version | Text Only | Print | Product List | Glossary On
Versions: 1 2 3 4 5 6 7 8 9 10 11 12 13 14 15 16 17 18 19 20 21 22 23 24 25 26 27 28 29 30 31 32 33 34 35 36 37 38
000
FTUS42 KFFC 311900 AAA
TAFATL
TAF AMD
KATL 311930Z 3120/0124 03005KT P6SM BKN035
     FM312200 09008KT P6SM BKN050
     FM010500 07007KT P6SM BKN018
     FM010800 06007KT P6SM BKN007 PROB30 0109/0115 4SM -RA BR
     FM011500 07006KT 5SM -SHRA BKN015 BKN025
     FM011800 06005KT 6SM -SHRA BKN040=

USA.gov is the U.S. government's official web portal to all federal, state and local government web resources and services.